sensor_id;sensor_type;location;lat;lon;timestamp;pressure;altitude;pressure_sealevel;temperature;humidity
52625;BME280;38519;52.540;13.410;2022-10-16T00:00:27;100448.59;;;15.15;100.00
52625;BME280;38519;52.540;13.410;2022-10-16T00:02:52;100458.53;;;15.20;100.00
52625;BME280;38519;52.540;13.410;2022-10-16T00:05:17;100452.44;;;15.21;100.00
52625;BME280;38519;52.540;13.410;2022-10-16T00:07:42;100455.31;;;15.26;100.00
52625;BME280;38519;52.540;13.410;2022-10-16T00:10:07;100462.44;;;15.28;100.00
52625;BME280;38519;52.540;13.410;2022-10-16T00:12:33;100464.25;;;15.29;100.00
52625;BME280;38519;52.540;13.410;2022-10-16T00:14:58;100469.66;;;15.33;100.00
52625;BME280;38519;52.540;13.410;2022-10-16T00:17:23;100468.75;;;15.32;100.00
52625;BME280;38519;52.540;13.410;2022-10-16T00:19:48;100471.31;;;15.30;100.00
52625;BME280;38519;52.540;13.410;2022-10-16T00:22:14;100470.50;;;15.32;100.00
52625;BME280;38519;52.540;13.410;2022-10-16T00:24:39;100462.59;;;15.32;100.00
52625;BME280;38519;52.540;13.410;2022-10-16T00:27:04;100465.41;;;15.35;100.00
52625;BME280;38519;52.540;13.410;2022-10-16T00:29:30;100479.53;;;15.37;100.00
52625;BME280;38519;52.540;13.410;2022-10-16T00:31:56;100476.16;;;15.39;100.00
52625;BME280;38519;52.540;13.410;2022-10-16T00:34:21;100478.72;;;15.38;100.00
52625;BME280;38519;52.540;13.410;2022-10-16T00:36:46;100482.88;;;15.34;100.00
52625;BME280;38519;52.540;13.410;2022-10-16T00:39:11;100488.00;;;15.31;100.00
52625;BME280;38519;52.540;13.410;2022-10-16T00:41:37;100485.44;;;15.33;100.00
52625;BME280;38519;52.540;13.410;2022-10-16T00:44:03;100485.34;;;15.31;100.00
52625;BME280;38519;52.540;13.410;2022-10-16T00:46:29;100484.38;;;15.29;100.00
52625;BME280;38519;52.540;13.410;2022-10-16T00:51:30;100472.28;;;15.33;100.00
52625;BME280;38519;52.540;13.410;2022-10-16T00:53:55;100477.69;;;15.36;100.00
52625;BME280;38519;52.540;13.410;2022-10-16T00:56:21;100481.19;;;15.35;100.00
52625;BME280;38519;52.540;13.410;2022-10-16T00:58:46;100483.81;;;15.35;100.00
52625;BME280;38519;52.540;13.410;2022-10-16T01:01:12;100488.00;;;15.31;100.00
52625;BME280;38519;52.540;13.410;2022-10-16T01:03:37;100497.03;;;15.36;100.00
52625;BME280;38519;52.540;13.410;2022-10-16T01:11:34;100497.19;;;15.39;100.00
52625;BME280;38519;52.540;13.410;2022-10-16T01:14:26;100486.69;;;15.39;100.00
52625;BME280;38519;52.540;13.410;2022-10-16T01:16:52;100491.69;;;15.35;100.00
52625;BME280;38519;52.540;13.410;2022-10-16T01:21:44;100499.28;;;15.28;100.00
52625;BME280;38519;52.540;13.410;2022-10-16T01:24:17;100506.31;;;15.29;100.00
52625;BME280;38519;52.540;13.410;2022-10-16T01:29:16;100495.81;;;15.29;100.00
52625;BME280;38519;52.540;13.410;2022-10-16T01:31:44;100508.97;;;15.29;100.00
52625;BME280;38519;52.540;13.410;2022-10-16T01:34:15;100515.38;;;15.35;100.00
52625;BME280;38519;52.540;13.410;2022-10-16T01:36:44;100517.94;;;15.33;100.00
52625;BME280;38519;52.540;13.410;2022-10-16T01:39:10;100517.00;;;15.33;100.00
52625;BME280;38519;52.540;13.410;2022-10-16T01:41:37;100518.66;;;15.30;100.00
52625;BME280;38519;52.540;13.410;2022-10-16T01:44:20;100516.84;;;15.29;100.00
52625;BME280;38519;52.540;13.410;2022-10-16T01:46:49;100523.78;;;15.27;100.00
52625;BME280;38519;52.540;13.410;2022-10-16T01:49:15;100517.63;;;15.27;100.00
52625;BME280;38519;52.540;13.410;2022-10-16T01:51:43;100516.41;;;15.20;100.00
52625;BME280;38519;52.540;13.410;2022-10-16T01:54:10;100520.00;;;15.22;100.00
52625;BME280;38519;52.540;13.410;2022-10-16T01:56:36;100515.81;;;15.26;100.00
52625;BME280;38519;52.540;13.410;2022-10-16T01:59:06;100517.22;;;15.19;100.00
52625;BME280;38519;52.540;13.410;2022-10-16T02:01:33;100530.44;;;15.21;100.00
52625;BME280;38519;52.540;13.410;2022-10-16T02:04:01;100532.34;;;15.23;100.00
52625;BME280;38519;52.540;13.410;2022-10-16T02:06:29;100527.28;;;15.28;100.00
52625;BME280;38519;52.540;13.410;2022-10-16T02:08:54;100530.84;;;15.28;100.00
52625;BME280;38519;52.540;13.410;2022-10-16T02:11:20;100541.38;;;15.28;100.00
52625;BME280;38519;52.540;13.410;2022-10-16T02:13:46;100541.38;;;15.28;100.00
52625;BME280;38519;52.540;13.410;2022-10-16T02:16:13;100542.25;;;15.29;100.00
52625;BME280;38519;52.540;13.410;2022-10-16T02:18:39;100549.34;;;15.30;100.00
52625;BME280;38519;52.540;13.410;2022-10-16T02:21:13;100556.47;;;15.33;100.00
52625;BME280;38519;52.540;13.410;2022-10-16T02:26:07;100561.56;;;15.29;100.00
52625;BME280;38519;52.540;13.410;2022-10-16T02:28:39;100554.69;;;15.32;100.00
52625;BME280;38519;52.540;13.410;2022-10-16T02:31:06;100547.59;;;15.30;100.00
52625;BME280;38519;52.540;13.410;2022-10-16T02:33:33;100556.38;;;15.31;100.00
52625;BME280;38519;52.540;13.410;2022-10-16T02:36:00;100557.00;;;15.25;100.00
52625;BME280;38519;52.540;13.410;2022-10-16T02:38:26;100557.66;;;15.21;100.00
52625;BME280;38519;52.540;13.410;2022-10-16T02:40:55;100561.28;;;15.23;100.00
52625;BME280;38519;52.540;13.410;2022-10-16T02:43:20;100568.34;;;15.24;100.00
52625;BME280;38519;52.540;13.410;2022-10-16T02:45:45;100554.19;;;15.22;100.00
52625;BME280;38519;52.540;13.410;2022-10-16T02:48:10;100561.94;;;15.19;100.00
52625;BME280;38519;52.540;13.410;2022-10-16T02:50:36;100562.75;;;15.18;100.00
52625;BME280;38519;52.540;13.410;2022-10-16T02:53:01;100569.59;;;15.15;100.00
52625;BME280;38519;52.540;13.410;2022-10-16T02:55:26;100572.28;;;15.16;100.00
52625;BME280;38519;52.540;13.410;2022-10-16T02:57:52;100568.69;;;15.14;100.00
52625;BME280;38519;52.540;13.410;2022-10-16T03:00:18;100563.44;;;15.14;100.00
52625;BME280;38519;52.540;13.410;2022-10-16T03:02:44;100570.03;;;15.06;100.00
52625;BME280;38519;52.540;13.410;2022-10-16T03:05:09;100570.75;;;15.03;100.00
52625;BME280;38519;52.540;13.410;2022-10-16T03:07:35;100567.63;;;14.94;100.00
52625;BME280;38519;52.540;13.410;2022-10-16T03:10:00;100576.28;;;14.91;100.00
52625;BME280;38519;52.540;13.410;2022-10-16T03:12:26;100574.22;;;14.86;100.00
52625;BME280;38519;52.540;13.410;2022-10-16T03:14:52;100581.19;;;14.85;100.00
52625;BME280;38519;52.540;13.410;2022-10-16T03:17:17;100576.59;;;14.81;100.00
52625;BME280;38519;52.540;13.410;2022-10-16T03:19:42;100582.00;;;14.84;100.00
52625;BME280;38519;52.540;13.410;2022-10-16T03:22:07;100580.06;;;14.80;100.00
52625;BME280;38519;52.540;13.410;2022-10-16T03:24:33;100584.31;;;14.78;100.00
52625;BME280;38519;52.540;13.410;2022-10-16T03:26:59;100584.91;;;14.72;100.00
52625;BME280;38519;52.540;13.410;2022-10-16T03:29:25;100588.25;;;14.70;100.00
52625;BME280;38519;52.540;13.410;2022-10-16T03:31:50;100588.91;;;14.66;100.00
52625;BME280;38519;52.540;13.410;2022-10-16T03:34:16;100596.91;;;14.67;100.00
52625;BME280;38519;52.540;13.410;2022-10-16T03:36:41;100600.31;;;14.66;100.00
52625;BME280;38519;52.540;13.410;2022-10-16T03:39:06;100602.78;;;14.63;100.00
52625;BME280;38519;52.540;13.410;2022-10-16T03:41:31;100608.78;;;14.61;100.00
52625;BME280;38519;52.540;13.410;2022-10-16T03:43:57;100606.59;;;14.53;100.00
52625;BME280;38519;52.540;13.410;2022-10-16T03:46:22;100604.16;;;14.56;100.00
52625;BME280;38519;52.540;13.410;2022-10-16T03:48:47;100609.59;;;14.60;100.00
52625;BME280;38519;52.540;13.410;2022-10-16T03:51:12;100618.09;;;14.55;100.00
52625;BME280;38519;52.540;13.410;2022-10-16T03:53:38;100632.25;;;14.57;100.00
52625;BME280;38519;52.540;13.410;2022-10-16T03:56:03;100629.16;;;14.65;100.00
52625;BME280;38519;52.540;13.410;2022-10-16T03:58:28;100628.34;;;14.66;100.00
52625;BME280;38519;52.540;13.410;2022-10-16T04:00:53;100636.94;;;14.63;100.00
52625;BME280;38519;52.540;13.410;2022-10-16T04:03:19;100636.66;;;14.58;100.00
52625;BME280;38519;52.540;13.410;2022-10-16T04:05:44;100627.00;;;14.57;100.00
52625;BME280;38519;52.540;13.410;2022-10-16T04:08:09;100627.88;;;14.58;100.00
52625;BME280;38519;52.540;13.410;2022-10-16T04:10:35;100639.13;;;14.55;100.00
52625;BME280;38519;52.540;13.410;2022-10-16T04:13:00;100643.47;;;14.55;100.00
52625;BME280;38519;52.540;13.410;2022-10-16T04:15:25;100644.28;;;14.54;100.00
52625;BME280;38519;52.540;13.410;2022-10-16T04:17:51;100645.22;;;14.54;100.00
52625;BME280;38519;52.540;13.410;2022-10-16T04:20:16;100647.00;;;14.55;100.00
52625;BME280;38519;52.540;13.410;2022-10-16T04:22:42;100647.91;;;14.56;100.00
52625;BME280;38519;52.540;13.410;2022-10-16T04:25:07;100655.06;;;14.58;100.00
52625;BME280;38519;52.540;13.410;2022-10-16T04:27:34;100647.38;;;14.62;100.00
52625;BME280;38519;52.540;13.410;2022-10-16T04:29:59;100641.91;;;14.58;100.00
52625;BME280;38519;52.540;13.410;2022-10-16T04:32:25;100642.97;;;14.61;100.00
52625;BME280;38519;52.540;13.410;2022-10-16T04:34:50;100632.44;;;14.61;100.00
52625;BME280;38519;52.540;13.410;2022-10-16T04:37:15;100628.44;;;14.52;100.00
52625;BME280;38519;52.540;13.410;2022-10-16T04:39:40;100631.38;;;14.42;100.00
52625;BME280;38519;52.540;13.410;2022-10-16T04:42:06;100631.19;;;14.39;100.00
52625;BME280;38519;52.540;13.410;2022-10-16T04:44:31;100630.22;;;14.37;100.00
52625;BME280;38519;52.540;13.410;2022-10-16T04:46:56;100628.75;;;14.42;100.00
52625;BME280;38519;52.540;13.410;2022-10-16T04:49:21;100620.59;;;14.37;100.00
52625;BME280;38519;52.540;13.410;2022-10-16T04:51:47;100613.94;;;14.28;100.00
52625;BME280;38519;52.540;13.410;2022-10-16T04:54:12;100617.28;;;14.25;100.00
52625;BME280;38519;52.540;13.410;2022-10-16T04:56:37;100619.69;;;14.20;100.00
52625;BME280;38519;52.540;13.410;2022-10-16T04:59:11;100622.03;;;14.16;100.00
52625;BME280;38519;52.540;13.410;2022-10-16T05:01:36;100621.09;;;14.15;100.00
52625;BME280;38519;52.540;13.410;2022-10-16T05:04:01;100627.13;;;14.13;100.00
52625;BME280;38519;52.540;13.410;2022-10-16T05:06:26;100639.88;;;14.07;100.00
52625;BME280;38519;52.540;13.410;2022-10-16T05:08:52;100647.75;;;14.07;100.00
52625;BME280;38519;52.540;13.410;2022-10-16T05:11:17;100657.50;;;14.09;100.00
52625;BME280;38519;52.540;13.410;2022-10-16T05:13:43;100671.09;;;14.17;100.00
52625;BME280;38519;52.540;13.410;2022-10-16T05:16:08;100669.56;;;14.20;100.00
52625;BME280;38519;52.540;13.410;2022-10-16T05:18:33;100668.91;;;14.25;100.00
52625;BME280;38519;52.540;13.410;2022-10-16T05:20:59;100667.44;;;14.30;100.00
52625;BME280;38519;52.540;13.410;2022-10-16T05:23:24;100659.97;;;14.21;100.00
52625;BME280;38519;52.540;13.410;2022-10-16T05:25:53;100667.34;;;14.28;100.00
52625;BME280;38519;52.540;13.410;2022-10-16T05:28:20;100669.09;;;14.28;100.00
52625;BME280;38519;52.540;13.410;2022-10-16T05:30:46;100660.31;;;14.27;100.00
52625;BME280;38519;52.540;13.410;2022-10-16T05:33:11;100663.84;;;14.28;100.00
52625;BME280;38519;52.540;13.410;2022-10-16T05:35:37;100659.22;;;14.24;100.00
52625;BME280;38519;52.540;13.410;2022-10-16T05:38:02;100658.13;;;14.20;100.00
52625;BME280;38519;52.540;13.410;2022-10-16T05:40:27;100660.94;;;14.23;100.00
52625;BME280;38519;52.540;13.410;2022-10-16T05:42:55;100674.97;;;14.24;100.00
52625;BME280;38519;52.540;13.410;2022-10-16T05:45:21;100687.22;;;14.23;100.00
52625;BME280;38519;52.540;13.410;2022-10-16T05:47:46;100688.47;;;14.30;100.00
52625;BME280;38519;52.540;13.410;2022-10-16T05:50:11;100690.47;;;14.34;100.00
52625;BME280;38519;52.540;13.410;2022-10-16T05:52:36;100692.00;;;14.30;100.00
52625;BME280;38519;52.540;13.410;2022-10-16T05:55:02;100694.81;;;14.33;100.00
52625;BME280;38519;52.540;13.410;2022-10-16T05:57:28;100679.25;;;14.21;100.00
52625;BME280;38519;52.540;13.410;2022-10-16T05:59:53;100675.91;;;14.09;100.00
52625;BME280;38519;52.540;13.410;2022-10-16T06:02:18;100685.59;;;14.10;100.00
52625;BME280;38519;52.540;13.410;2022-10-16T06:04:43;100679.91;;;14.17;100.00
52625;BME280;38519;52.540;13.410;2022-10-16T06:07:09;100677.53;;;14.07;100.00
52625;BME280;38519;52.540;13.410;2022-10-16T06:09:34;100683.72;;;14.08;100.00
52625;BME280;38519;52.540;13.410;2022-10-16T06:11:59;100685.59;;;14.10;100.00
52625;BME280;38519;52.540;13.410;2022-10-16T06:14:24;100703.44;;;14.16;100.00
52625;BME280;38519;52.540;13.410;2022-10-16T06:16:50;100701.88;;;14.19;100.00
52625;BME280;38519;52.540;13.410;2022-10-16T06:19:15;100709.38;;;14.28;100.00
52625;BME280;38519;52.540;13.410;2022-10-16T06:21:41;100706.03;;;14.31;100.00
52625;BME280;38519;52.540;13.410;2022-10-16T06:24:06;100708.84;;;14.34;100.00
52625;BME280;38519;52.540;13.410;2022-10-16T06:26:32;100701.16;;;14.37;100.00
52625;BME280;38519;52.540;13.410;2022-10-16T06:28:58;100705.56;;;14.38;100.00
52625;BME280;38519;52.540;13.410;2022-10-16T06:31:23;100705.25;;;14.32;100.00
52625;BME280;38519;52.540;13.410;2022-10-16T06:33:52;100715.66;;;14.30;100.00
52625;BME280;38519;52.540;13.410;2022-10-16T06:36:17;100723.94;;;14.38;100.00
52625;BME280;38519;52.540;13.410;2022-10-16T06:38:43;100720.88;;;14.45;100.00
52625;BME280;38519;52.540;13.410;2022-10-16T06:41:12;100726.47;;;14.51;100.00
52625;BME280;38519;52.540;13.410;2022-10-16T06:43:38;100731.25;;;14.58;100.00
52625;BME280;38519;52.540;13.410;2022-10-16T06:46:04;100737.88;;;14.67;100.00
52625;BME280;38519;52.540;13.410;2022-10-16T06:48:29;100736.59;;;14.75;100.00
52625;BME280;38519;52.540;13.410;2022-10-16T06:50:58;100746.69;;;14.67;100.00
52625;BME280;38519;52.540;13.410;2022-10-16T06:53:24;100749.31;;;14.67;100.00
52625;BME280;38519;52.540;13.410;2022-10-16T06:55:51;100747.22;;;14.62;100.00
52625;BME280;38519;52.540;13.410;2022-10-16T06:58:16;100752.03;;;14.69;100.00
52625;BME280;38519;52.540;13.410;2022-10-16T07:00:42;100743.66;;;14.76;100.00
52625;BME280;38519;52.540;13.410;2022-10-16T07:03:07;100747.38;;;14.80;100.00
52625;BME280;38519;52.540;13.410;2022-10-16T07:05:36;100754.78;;;14.87;100.00
52625;BME280;38519;52.540;13.410;2022-10-16T07:08:02;100751.72;;;15.10;100.00
52625;BME280;38519;52.540;13.410;2022-10-16T07:10:27;100755.19;;;15.26;100.00
52625;BME280;38519;52.540;13.410;2022-10-16T07:12:52;100768.94;;;15.37;100.00
52625;BME280;38519;52.540;13.410;2022-10-16T07:15:17;100769.69;;;15.51;100.00
52625;BME280;38519;52.540;13.410;2022-10-16T07:17:43;100773.72;;;15.60;100.00
52625;BME280;38519;52.540;13.410;2022-10-16T07:20:08;100775.91;;;15.69;100.00
52625;BME280;38519;52.540;13.410;2022-10-16T07:22:34;100774.09;;;15.68;100.00
52625;BME280;38519;52.540;13.410;2022-10-16T07:24:59;100773.97;;;15.65;100.00
52625;BME280;38519;52.540;13.410;2022-10-16T07:27:24;100767.50;;;15.60;100.00
52625;BME280;38519;52.540;13.410;2022-10-16T07:29:51;100777.56;;;15.67;100.00
52625;BME280;38519;52.540;13.410;2022-10-16T07:32:16;100778.72;;;15.72;100.00
52625;BME280;38519;52.540;13.410;2022-10-16T07:34:41;100783.44;;;15.78;100.00
52625;BME280;38519;52.540;13.410;2022-10-16T07:37:07;100766.97;;;15.82;100.00
52625;BME280;38519;52.540;13.410;2022-10-16T07:39:32;100767.94;;;15.84;100.00
52625;BME280;38519;52.540;13.410;2022-10-16T07:41:57;100782.19;;;15.88;100.00
52625;BME280;38519;52.540;13.410;2022-10-16T07:44:23;100780.78;;;15.94;100.00
52625;BME280;38519;52.540;13.410;2022-10-16T07:46:48;100788.84;;;15.97;100.00
52625;BME280;38519;52.540;13.410;2022-10-16T07:49:13;100794.13;;;15.97;100.00
52625;BME280;38519;52.540;13.410;2022-10-16T07:51:39;100779.84;;;15.94;100.00
52625;BME280;38519;52.540;13.410;2022-10-16T07:54:04;100780.88;;;15.96;100.00
52625;BME280;38519;52.540;13.410;2022-10-16T07:56:30;100784.06;;;15.90;100.00
52625;BME280;38519;52.540;13.410;2022-10-16T07:58:55;100777.19;;;15.92;100.00
52625;BME280;38519;52.540;13.410;2022-10-16T08:01:21;100776.09;;;15.89;100.00
52625;BME280;38519;52.540;13.410;2022-10-16T08:03:48;100790.56;;;15.97;100.00
52625;BME280;38519;52.540;13.410;2022-10-16T08:06:13;100801.34;;;16.01;100.00
52625;BME280;38519;52.540;13.410;2022-10-16T08:08:39;100807.75;;;16.07;100.00
52625;BME280;38519;52.540;13.410;2022-10-16T08:11:04;100817.72;;;16.12;100.00
52625;BME280;38519;52.540;13.410;2022-10-16T08:13:30;100819.78;;;16.18;100.00
52625;BME280;38519;52.540;13.410;2022-10-16T08:15:56;100824.59;;;16.27;100.00
52625;BME280;38519;52.540;13.410;2022-10-16T08:18:21;100825.66;;;16.30;100.00
52625;BME280;38519;52.540;13.410;2022-10-16T08:20:54;100809.34;;;16.37;100.00
52625;BME280;38519;52.540;13.410;2022-10-16T08:23:21;100818.31;;;16.41;100.00
52625;BME280;38519;52.540;13.410;2022-10-16T08:25:46;100809.50;;;16.41;100.00
52625;BME280;38519;52.540;13.410;2022-10-16T08:28:11;100813.84;;;16.40;100.00
52625;BME280;38519;52.540;13.410;2022-10-16T08:30:37;100803.38;;;16.42;100.00
52625;BME280;38519;52.540;13.410;2022-10-16T08:33:02;100826.94;;;16.38;100.00
52625;BME280;38519;52.540;13.410;2022-10-16T08:35:28;100830.44;;;16.37;100.00
52625;BME280;38519;52.540;13.410;2022-10-16T08:37:53;100833.22;;;16.41;100.00
52625;BME280;38519;52.540;13.410;2022-10-16T08:40:20;100828.09;;;16.44;100.00
52625;BME280;38519;52.540;13.410;2022-10-16T08:43:12;100822.84;;;16.44;100.00
52625;BME280;38519;52.540;13.410;2022-10-16T08:48:42;100821.94;;;16.61;100.00
52625;BME280;38519;52.540;13.410;2022-10-16T08:51:09;100828.28;;;16.65;100.00
52625;BME280;38519;52.540;13.410;2022-10-16T08:53:58;100821.94;;;16.61;100.00
52625;BME280;38519;52.540;13.410;2022-10-16T08:56:23;100831.66;;;16.62;100.00
52625;BME280;38519;52.540;13.410;2022-10-16T08:58:49;100831.34;;;16.56;100.00
52625;BME280;38519;52.540;13.410;2022-10-16T09:01:16;100844.69;;;16.59;100.00
52625;BME280;38519;52.540;13.410;2022-10-16T09:08:40;100851.38;;;16.87;100.00
52625;BME280;38519;52.540;13.410;2022-10-16T09:16:39;100858.91;;;17.15;100.00
52625;BME280;38519;52.540;13.410;2022-10-16T09:19:14;100867.78;;;17.17;100.00
52625;BME280;38519;52.540;13.410;2022-10-16T09:21:44;100862.59;;;17.19;100.00
52625;BME280;38519;52.540;13.410;2022-10-16T09:24:11;100860.09;;;17.22;100.00
52625;BME280;38519;52.540;13.410;2022-10-16T09:26:37;100852.75;;;17.15;100.00
52625;BME280;38519;52.540;13.410;2022-10-16T09:29:03;100856.41;;;17.18;100.00
52625;BME280;38519;52.540;13.410;2022-10-16T09:31:28;100854.59;;;17.17;100.00
52625;BME280;38519;52.540;13.410;2022-10-16T09:33:58;100858.47;;;17.24;100.00
52625;BME280;38519;52.540;13.410;2022-10-16T09:36:25;100858.97;;;17.17;100.00
52625;BME280;38519;52.540;13.410;2022-10-16T09:39:01;100862.97;;;17.26;100.00
52625;BME280;38519;52.540;13.410;2022-10-16T09:41:26;100872.16;;;17.35;100.00
52625;BME280;38519;52.540;13.410;2022-10-16T09:43:56;100868.00;;;17.40;100.00
52625;BME280;38519;52.540;13.410;2022-10-16T09:46:27;100868.72;;;17.55;100.00
52625;BME280;38519;52.540;13.410;2022-10-16T09:48:57;100875.06;;;17.59;100.00
52625;BME280;38519;52.540;13.410;2022-10-16T09:51:24;100880.38;;;17.41;100.00
52625;BME280;38519;52.540;13.410;2022-10-16T09:53:53;100887.47;;;17.42;100.00
52625;BME280;38519;52.540;13.410;2022-10-16T09:56:23;100885.31;;;17.53;100.00
52625;BME280;38519;52.540;13.410;2022-10-16T09:58:49;100897.09;;;17.59;100.00
52625;BME280;38519;52.540;13.410;2022-10-16T10:01:16;100896.19;;;17.59;100.00
52625;BME280;38519;52.540;13.410;2022-10-16T10:03:42;100893.56;;;17.78;99.88
52625;BME280;38519;52.540;13.410;2022-10-16T10:06:16;100888.41;;;17.99;96.61
52625;BME280;38519;52.540;13.410;2022-10-16T10:08:52;100895.41;;;18.18;95.67
52625;BME280;38519;52.540;13.410;2022-10-16T10:11:17;100907.38;;;18.10;96.54
52625;BME280;38519;52.540;13.410;2022-10-16T10:13:43;100915.44;;;18.13;96.55
52625;BME280;38519;52.540;13.410;2022-10-16T10:16:08;100903.25;;;18.15;96.09
52625;BME280;38519;52.540;13.410;2022-10-16T10:18:33;100898.69;;;18.13;95.18
52625;BME280;38519;52.540;13.410;2022-10-16T10:20:59;100903.91;;;18.11;95.41
52625;BME280;38519;52.540;13.410;2022-10-16T10:23:25;100910.38;;;17.98;95.47
52625;BME280;38519;52.540;13.410;2022-10-16T10:26:07;100914.56;;;17.93;95.87
52625;BME280;38519;52.540;13.410;2022-10-16T10:31:28;100909.81;;;17.68;97.47
52625;BME280;38519;52.540;13.410;2022-10-16T10:36:35;100928.19;;;17.84;95.78
52625;BME280;38519;52.540;13.410;2022-10-16T10:56:49;100928.59;;;18.51;89.39
52625;BME280;38519;52.540;13.410;2022-10-16T11:07:43;100934.41;;;19.25;84.84
52625;BME280;38519;52.540;13.410;2022-10-16T11:10:19;100940.97;;;19.35;83.39
52625;BME280;38519;52.540;13.410;2022-10-16T11:12:46;100943.66;;;19.14;84.50
52625;BME280;38519;52.540;13.410;2022-10-16T11:15:19;100940.88;;;19.10;84.16
52625;BME280;38519;52.540;13.410;2022-10-16T11:17:53;100939.13;;;19.11;85.06
52625;BME280;38519;52.540;13.410;2022-10-16T11:25:13;100932.81;;;18.86;84.68
52625;BME280;38519;52.540;13.410;2022-10-16T11:30:19;100942.75;;;18.72;85.38
52625;BME280;38519;52.540;13.410;2022-10-16T11:32:50;100933.72;;;18.67;85.94
52625;BME280;38519;52.540;13.410;2022-10-16T11:35:19;100925.56;;;18.63;84.99
52625;BME280;38519;52.540;13.410;2022-10-16T11:37:45;100936.97;;;18.62;84.27
52625;BME280;38519;52.540;13.410;2022-10-16T11:42:51;100923.50;;;18.55;83.87
52625;BME280;38519;52.540;13.410;2022-10-16T11:55:54;100932.09;;;18.71;81.50
52625;BME280;38519;52.540;13.410;2022-10-16T11:58:22;100941.75;;;18.49;81.67
52625;BME280;38519;52.540;13.410;2022-10-16T12:08:28;100959.28;;;18.28;82.73
52625;BME280;38519;52.540;13.410;2022-10-16T12:10:53;100961.03;;;18.27;81.89
52625;BME280;38519;52.540;13.410;2022-10-16T12:13:33;100966.81;;;18.38;82.10
52625;BME280;38519;52.540;13.410;2022-10-16T12:18:37;100973.00;;;18.99;75.86
52625;BME280;38519;52.540;13.410;2022-10-16T12:21:02;100971.22;;;19.19;74.43
52625;BME280;38519;52.540;13.410;2022-10-16T12:23:32;100972.50;;;19.28;72.67
52625;BME280;38519;52.540;13.410;2022-10-16T12:25:58;100973.31;;;19.27;72.53
52625;BME280;38519;52.540;13.410;2022-10-16T12:28:34;100973.72;;;19.37;71.72
52625;BME280;38519;52.540;13.410;2022-10-16T12:31:01;100982.03;;;19.46;71.13
52625;BME280;38519;52.540;13.410;2022-10-16T12:33:31;100976.06;;;19.52;71.09
52625;BME280;38519;52.540;13.410;2022-10-16T12:35:58;100980.84;;;19.60;70.79
52625;BME280;38519;52.540;13.410;2022-10-16T12:38:30;100978.34;;;19.63;70.73
52625;BME280;38519;52.540;13.410;2022-10-16T12:41:04;100978.84;;;19.55;69.84
52625;BME280;38519;52.540;13.410;2022-10-16T12:43:37;100986.66;;;19.52;69.62
52625;BME280;38519;52.540;13.410;2022-10-16T12:48:30;100991.66;;;19.65;68.29
52625;BME280;38519;52.540;13.410;2022-10-16T12:50:56;100987.91;;;20.04;66.65
52625;BME280;38519;52.540;13.410;2022-10-16T12:53:24;100992.88;;;20.65;65.19
52625;BME280;38519;52.540;13.410;2022-10-16T12:55:52;101000.88;;;21.44;61.80
52625;BME280;38519;52.540;13.410;2022-10-16T12:58:36;101004.03;;;21.85;59.61
52625;BME280;38519;52.540;13.410;2022-10-16T13:09:19;101005.72;;;22.41;55.94
52625;BME280;38519;52.540;13.410;2022-10-16T13:14:31;101010.44;;;21.92;57.58
52625;BME280;38519;52.540;13.410;2022-10-16T13:22:01;101020.50;;;20.96;60.29
52625;BME280;38519;52.540;13.410;2022-10-16T13:29:40;101032.75;;;20.22;63.14
52625;BME280;38519;52.540;13.410;2022-10-16T13:32:07;101035.59;;;20.26;63.62
52625;BME280;38519;52.540;13.410;2022-10-16T13:34:41;101036.63;;;20.07;63.34
52625;BME280;38519;52.540;13.410;2022-10-16T13:37:15;101037.81;;;20.15;64.17
52625;BME280;38519;52.540;13.410;2022-10-16T13:39:41;101024.47;;;20.36;62.73
52625;BME280;38519;52.540;13.410;2022-10-16T13:42:26;101020.53;;;20.49;62.13
52625;BME280;38519;52.540;13.410;2022-10-16T13:44:53;101022.34;;;20.26;63.23
52625;BME280;38519;52.540;13.410;2022-10-16T13:47:20;101033.16;;;20.08;63.84
52625;BME280;38519;52.540;13.410;2022-10-16T13:49:45;101033.53;;;19.96;63.55
52625;BME280;38519;52.540;13.410;2022-10-16T13:52:18;101025.00;;;19.81;64.76
52625;BME280;38519;52.540;13.410;2022-10-16T13:54:43;101022.56;;;19.66;65.71
52625;BME280;38519;52.540;13.410;2022-10-16T13:57:12;101028.28;;;19.54;66.45
52625;BME280;38519;52.540;13.410;2022-10-16T13:59:38;101032.22;;;19.43;66.95
52625;BME280;38519;52.540;13.410;2022-10-16T14:04:44;101039.84;;;19.35;66.17
52625;BME280;38519;52.540;13.410;2022-10-16T14:07:13;101036.78;;;19.26;65.48
52625;BME280;38519;52.540;13.410;2022-10-16T14:09:39;101038.94;;;19.14;65.38
52625;BME280;38519;52.540;13.410;2022-10-16T14:12:09;101038.81;;;19.10;66.00
52625;BME280;38519;52.540;13.410;2022-10-16T14:14:39;101043.97;;;19.07;65.28
52625;BME280;38519;52.540;13.410;2022-10-16T14:17:05;101044.50;;;19.00;66.03
52625;BME280;38519;52.540;13.410;2022-10-16T14:19:31;101046.28;;;19.00;66.72
52625;BME280;38519;52.540;13.410;2022-10-16T14:21:57;101047.09;;;18.99;65.73
52625;BME280;38519;52.540;13.410;2022-10-16T14:24:34;101059.50;;;19.00;66.17
52625;BME280;38519;52.540;13.410;2022-10-16T14:27:00;101052.31;;;18.97;66.24
52625;BME280;38519;52.540;13.410;2022-10-16T14:29:27;101059.28;;;18.95;66.82